Time;durP1;ratioP1;P1;durP2;ratioP2;P2;SDS_P1;SDS_P2;PMS_P1;PMS_P2;Temp;Humidity;BMP_temperature;BMP_pressure;BME280_temperature;BME280_humidity;BME280_pressure;Samples;Min_cycle;Max_cycle;Signal;HPM_P1;HPM_P2
2023/08/19 00:01:06;;;;;;;4.70;4.20;;;21.00;99.90;;;;;;5078803;28;20045;-79
2023/08/19 00:03:33;;;;;;;4.07;3.67;;;21.00;99.90;;;;;;5063915;28;20586;-80
2023/08/19 00:06:04;;;;;;;3.72;3.30;;;21.00;99.90;;;;;;5046657;28;20051;-80
2023/08/19 00:08:31;;;;;;;4.43;4.03;;;21.00;99.90;;;;;;5047926;28;20121;-79
2023/08/19 00:10:58;;;;;;;6.00;4.15;;;21.00;99.90;;;;;;5045886;28;20048;-78
2023/08/19 00:13:25;;;;;;;4.63;3.95;;;21.00;99.90;;;;;;5063056;28;20056;-79
2023/08/19 00:15:52;;;;;;;5.30;4.40;;;21.10;99.90;;;;;;5030064;28;20480;-79
2023/08/19 00:18:19;;;;;;;4.35;3.95;;;21.00;99.90;;;;;;5029991;28;20510;-79
2023/08/19 00:20:46;;;;;;;4.90;4.10;;;21.00;99.90;;;;;;5047256;28;20052;-78
2023/08/19 00:23:15;;;;;;;4.93;4.07;;;21.00;99.90;;;;;;5046882;28;20074;-79
2023/08/19 00:25:43;;;;;;;6.28;4.35;;;21.00;1.00;;;;;;5079545;28;20137;-78
2023/08/19 00:28:10;;;;;;;6.68;5.07;;;21.00;1.00;;;;;;5061827;28;20102;-79
2023/08/19 00:30:36;;;;;;;5.10;4.38;;;20.90;1.00;;;;;;5078503;28;20052;-79
2023/08/19 00:33:03;;;;;;;5.45;4.95;;;20.80;1.00;;;;;;5049626;28;20048;-80
2023/08/19 00:35:32;;;;;;;5.95;5.35;;;20.80;3.10;;;;;;5045873;28;20447;-80
2023/08/19 00:37:59;;;;;;;6.15;5.30;;;20.70;24.20;;;;;;5062239;28;20106;-80
2023/08/19 00:40:26;;;;;;;4.47;4.07;;;20.70;30.40;;;;;;5062288;28;20057;-80
2023/08/19 00:42:53;;;;;;;3.80;3.38;;;20.60;26.70;;;;;;5041408;28;20442;-80
2023/08/19 00:45:20;;;;;;;3.17;2.65;;;20.60;28.80;;;;;;5062262;28;20372;-80
2023/08/19 00:47:47;;;;;;;3.03;2.72;;;20.60;19.10;;;;;;5058542;28;20468;-80
2023/08/19 00:50:14;;;;;;;3.20;2.90;;;20.60;2.90;;;;;;5044664;28;20601;-80
2023/08/19 00:52:41;;;;;;;2.80;2.28;;;20.60;1.00;;;;;;5051808;28;20052;-80
2023/08/19 00:55:08;;;;;;;2.30;2.03;;;20.50;1.00;;;;;;5061293;28;20052;-80
2023/08/19 00:57:36;;;;;;;1.98;1.70;;;20.50;1.00;;;;;;5027757;28;20056;-80
2023/08/19 01:00:04;;;;;;;2.38;1.80;;;20.50;1.00;;;;;;5030198;28;20076;-80
2023/08/19 01:02:30;;;;;;;1.90;1.70;;;20.50;1.00;;;;;;5045407;28;20051;-79
2023/08/19 01:04:57;;;;;;;1.75;1.63;;;20.50;1.00;;;;;;5029132;28;20154;-79
2023/08/19 01:07:48;;;;;;;1.58;1.27;;;20.40;1.00;;;;;;5061831;28;20048;-80
2023/08/19 01:10:31;;;;;;;1.63;1.40;;;20.50;1.00;;;;;;5048977;28;20098;-79
2023/08/19 01:13:25;;;;;;;1.20;1.08;;;20.40;1.00;;;;;;5043567;28;20059;-79
2023/08/19 01:16:03;;;;;;;1.17;1.02;;;20.50;1.00;;;;;;5063063;28;20041;-80
2023/08/19 01:18:30;;;;;;;1.73;1.38;;;20.40;1.00;;;;;;5030223;28;20098;-79
2023/08/19 01:20:57;;;;;;;1.42;1.23;;;20.40;1.00;;;;;;5028694;28;20510;-79
2023/08/19 01:23:29;;;;;;;1.50;1.27;;;20.40;1.00;;;;;;5062015;28;20056;-80
2023/08/19 01:25:56;;;;;;;1.75;1.40;;;20.30;1.00;;;;;;5077299;28;20122;-80
2023/08/19 01:28:23;;;;;;;3.10;1.55;;;20.40;1.00;;;;;;5061450;28;20060;-80
2023/08/19 01:30:50;;;;;;;1.83;1.50;;;20.40;1.00;;;;;;5055694;28;20670;-80
2023/08/19 01:33:17;;;;;;;2.28;2.08;;;20.30;1.00;;;;;;5070244;28;20145;-80
2023/08/19 01:35:53;;;;;;;2.05;1.70;;;20.30;1.00;;;;;;5079548;28;20048;-79
2023/08/19 01:38:28;;;;;;;2.05;1.60;;;20.20;1.00;;;;;;5063409;28;20041;-80
2023/08/19 01:40:55;;;;;;;1.90;1.70;;;20.20;1.00;;;;;;5061438;28;20509;-80
2023/08/19 01:43:22;;;;;;;2.47;1.77;;;20.20;1.00;;;;;;5053298;28;20480;-80
2023/08/19 01:45:48;;;;;;;2.42;1.98;;;20.20;99.90;;;;;;5029731;28;20052;-79
2023/08/19 01:48:16;;;;;;;1.80;1.27;;;20.20;99.90;;;;;;5046755;28;20599;-80
2023/08/19 01:50:43;;;;;;;2.08;1.80;;;20.10;99.90;;;;;;5030143;28;20094;-80
2023/08/19 01:53:09;;;;;;;2.25;1.67;;;20.10;99.90;;;;;;5026587;28;20091;-80
2023/08/19 01:55:36;;;;;;;1.85;1.40;;;20.10;99.90;;;;;;5055841;28;20504;-80
2023/08/19 01:58:03;;;;;;;1.55;1.33;;;20.00;99.90;;;;;;5058695;28;20041;-80
2023/08/19 02:00:30;;;;;;;1.55;1.17;;;20.00;99.90;;;;;;5060255;28;20068;-80
2023/08/19 02:02:56;;;;;;;1.80;1.30;;;20.00;99.90;;;;;;5049825;28;20076;-80
2023/08/19 02:05:23;;;;;;;1.50;1.30;;;20.00;99.90;;;;;;5064575;28;20086;-80
2023/08/19 02:07:51;;;;;;;1.85;1.48;;;20.00;99.90;;;;;;5076438;28;20091;-79
2023/08/19 02:10:17;;;;;;;1.70;1.35;;;20.00;99.90;;;;;;5062891;28;20045;-80
2023/08/19 02:12:44;;;;;;;1.33;1.20;;;20.00;99.90;;;;;;5079109;28;20051;-79
2023/08/19 02:15:11;;;;;;;1.10;1.00;;;19.90;99.90;;;;;;5062678;28;20109;-80
2023/08/19 02:17:38;;;;;;;1.20;1.10;;;19.90;99.90;;;;;;5029562;28;20052;-80
2023/08/19 02:20:06;;;;;;;1.48;1.17;;;19.90;99.90;;;;;;5063142;28;20048;-80
2023/08/19 02:22:33;;;;;;;2.05;1.20;;;19.90;99.90;;;;;;5029290;28;20500;-80
2023/08/19 02:25:00;;;;;;;1.60;1.15;;;19.80;99.90;;;;;;5046525;28;20519;-80
2023/08/19 02:27:26;;;;;;;2.08;1.55;;;19.80;99.90;;;;;;5044214;28;20579;-79
2023/08/19 02:29:53;;;;;;;1.50;1.20;;;19.80;99.90;;;;;;5063066;28;20074;-79
2023/08/19 02:32:21;;;;;;;1.25;1.15;;;19.70;99.90;;;;;;5060577;28;20629;-79
2023/08/19 02:34:48;;;;;;;1.25;1.05;;;19.70;99.90;;;;;;5042777;28;20500;-80
2023/08/19 02:37:14;;;;;;;0.90;0.80;;;19.70;99.90;;;;;;5060572;28;20047;-80
2023/08/19 02:39:41;;;;;;;1.80;1.15;;;19.60;99.90;;;;;;5060002;28;20130;-79
2023/08/19 02:42:08;;;;;;;0.80;0.80;;;19.70;99.90;;;;;;5057434;28;20048;-80
2023/08/19 02:44:35;;;;;;;1.20;1.10;;;19.60;99.90;;;;;;5046020;28;20076;-79
2023/08/19 02:47:02;;;;;;;1.17;0.85;;;19.60;99.90;;;;;;5045881;28;20056;-79
2023/08/19 02:49:29;;;;;;;1.25;0.95;;;19.60;99.90;;;;;;5062745;28;20041;-79
2023/08/19 02:51:57;;;;;;;0.95;0.73;;;19.50;99.90;;;;;;5061406;28;20048;-79
2023/08/19 02:54:23;;;;;;;0.80;0.70;;;19.50;99.90;;;;;;5062343;28;20044;-80
2023/08/19 02:56:50;;;;;;;1.80;1.00;;;19.60;99.90;;;;;;5043666;28;20056;-79
2023/08/19 02:59:17;;;;;;;1.13;0.80;;;19.60;99.90;;;;;;5044083;28;20484;-79
2023/08/19 03:01:44;;;;;;;1.20;1.05;;;19.60;99.90;;;;;;5044082;28;21345;-80
2023/08/19 03:04:11;;;;;;;1.08;0.70;;;19.60;99.90;;;;;;5057336;28;20063;-79
2023/08/19 03:06:38;;;;;;;2.15;0.90;;;19.50;99.90;;;;;;5062012;28;20113;-79
2023/08/19 03:09:05;;;;;;;1.65;1.13;;;19.50;99.90;;;;;;5062549;28;20118;-79
2023/08/19 03:11:31;;;;;;;0.70;0.70;;;19.50;99.90;;;;;;5060364;28;20488;-80
2023/08/19 03:13:58;;;;;;;0.95;0.70;;;19.50;99.90;;;;;;5062308;28;20110;-79
2023/08/19 03:16:25;;;;;;;1.42;0.95;;;19.50;99.90;;;;;;5061771;28;20102;-79
2023/08/19 03:18:52;;;;;;;1.13;0.88;;;19.50;99.90;;;;;;5048360;28;20044;-79
2023/08/19 03:21:19;;;;;;;1.05;0.70;;;19.50;99.90;;;;;;5049350;28;20475;-79
2023/08/19 03:23:46;;;;;;;0.75;0.73;;;19.50;99.90;;;;;;5066033;28;20064;-79
2023/08/19 03:26:12;;;;;;;0.85;0.63;;;19.50;99.90;;;;;;5047267;28;20103;-78
2023/08/19 03:28:39;;;;;;;0.85;0.65;;;19.50;99.90;;;;;;5047358;28;20094;-79
2023/08/19 03:31:10;;;;;;;0.88;0.60;;;19.60;99.90;;;;;;5082076;28;20531;-79
2023/08/19 03:33:41;;;;;;;1.17;0.73;;;19.60;99.90;;;;;;5072848;28;20048;-79
2023/08/19 03:36:08;;;;;;;1.00;0.82;;;19.60;99.90;;;;;;5032657;28;20044;-78
2023/08/19 03:38:35;;;;;;;0.50;0.50;;;19.50;99.90;;;;;;5082482;28;20186;-79
2023/08/19 03:41:01;;;;;;;1.17;0.80;;;19.50;99.90;;;;;;5064765;28;20048;-78
2023/08/19 03:43:28;;;;;;;0.88;0.50;;;19.40;99.90;;;;;;5065224;28;20052;-79
2023/08/19 03:45:55;;;;;;;0.93;0.80;;;19.40;99.90;;;;;;5032352;28;20052;-78
2023/08/19 03:48:22;;;;;;;0.73;0.60;;;19.30;99.90;;;;;;5049222;28;20553;-79
2023/08/19 03:50:49;;;;;;;0.60;0.60;;;19.20;99.90;;;;;;5081986;28;20565;-78
2023/08/19 03:53:15;;;;;;;0.75;0.45;;;19.20;99.90;;;;;;5065012;28;20135;-79
2023/08/19 03:55:42;;;;;;;1.20;0.60;;;19.20;99.90;;;;;;5064962;28;20110;-78
2023/08/19 03:58:09;;;;;;;0.60;0.60;;;19.10;99.90;;;;;;5047637;28;20044;-79
2023/08/19 04:00:37;;;;;;;0.70;0.55;;;19.00;99.90;;;;;;5032448;28;20072;-78
2023/08/19 04:03:03;;;;;;;0.80;0.70;;;18.90;99.90;;;;;;5049148;28;20063;-79
2023/08/19 04:05:31;;;;;;;0.68;0.40;;;18.90;99.90;;;;;;5048882;28;20148;-79
2023/08/19 04:07:57;;;;;;;1.38;0.80;;;18.80;99.90;;;;;;5032398;28;20074;-79
2023/08/19 04:10:24;;;;;;;1.20;0.70;;;18.80;99.90;;;;;;5048512;28;20088;-79
2023/08/19 04:12:51;;;;;;;1.58;0.70;;;18.70;99.90;;;;;;5030552;28;20060;-78
2023/08/19 04:15:18;;;;;;;1.02;0.70;;;18.70;99.90;;;;;;5033158;28;20053;-78
2023/08/19 04:17:44;;;;;;;1.10;0.75;;;18.60;99.90;;;;;;5081791;28;20130;-78
2023/08/19 04:20:13;;;;;;;1.25;0.60;;;18.60;99.90;;;;;;5064135;28;20048;-78
2023/08/19 04:22:40;;;;;;;1.08;0.60;;;18.60;99.90;;;;;;5065180;28;20049;-78
2023/08/19 04:25:08;;;;;;;1.17;0.75;;;18.50;99.90;;;;;;5048851;28;20132;-78
2023/08/19 04:27:34;;;;;;;0.85;0.50;;;18.50;99.90;;;;;;5061343;28;20133;-78
2023/08/19 04:30:01;;;;;;;1.15;0.50;;;18.40;99.90;;;;;;5063693;28;20059;-78
2023/08/19 04:32:28;;;;;;;0.70;0.63;;;18.40;99.90;;;;;;5064439;28;20128;-78
2023/08/19 04:34:55;;;;;;;1.30;0.47;;;18.40;99.90;;;;;;5048461;28;20079;-78
2023/08/19 04:37:22;;;;;;;0.90;0.55;;;18.30;99.90;;;;;;5060065;28;20053;-78
2023/08/19 04:39:49;;;;;;;0.98;0.55;;;18.30;99.90;;;;;;5062947;28;20056;-78
2023/08/19 04:42:15;;;;;;;0.80;0.60;;;18.30;99.90;;;;;;5076998;28;20095;-77
2023/08/19 04:44:42;;;;;;;0.50;0.50;;;18.20;99.90;;;;;;5062090;28;20041;-78
2023/08/19 04:47:09;;;;;;;1.98;0.50;;;18.20;99.90;;;;;;5080577;28;20114;-78
2023/08/19 04:49:36;;;;;;;0.98;0.55;;;18.10;99.90;;;;;;5063637;28;20438;-78
2023/08/19 04:52:04;;;;;;;1.33;0.70;;;18.10;99.90;;;;;;5050845;28;20098;-78
2023/08/19 04:54:31;;;;;;;0.75;0.50;;;18.10;99.90;;;;;;5062481;28;20044;-78
2023/08/19 04:56:58;;;;;;;1.00;0.40;;;18.00;99.90;;;;;;5065353;28;20052;-78
2023/08/19 04:59:25;;;;;;;1.90;0.70;;;18.00;99.90;;;;;;5067253;28;20053;-79
2023/08/19 05:01:52;;;;;;;0.90;0.50;;;18.00;99.90;;;;;;5063935;28;20458;-78
2023/08/19 05:04:19;;;;;;;0.57;0.47;;;18.00;99.90;;;;;;5061303;28;20460;-78
2023/08/19 05:06:46;;;;;;;1.13;0.70;;;17.90;99.90;;;;;;5045500;28;20052;-78
2023/08/19 05:09:13;;;;;;;1.08;0.60;;;17.90;99.90;;;;;;5062735;28;20130;-78
2023/08/19 05:11:40;;;;;;;0.85;0.60;;;17.90;99.90;;;;;;5027492;28;20055;-78
2023/08/19 05:14:07;;;;;;;1.23;0.80;;;17.90;99.90;;;;;;5062119;28;20132;-78
2023/08/19 05:16:34;;;;;;;0.80;0.50;;;17.90;99.90;;;;;;5028933;28;20045;-78
2023/08/19 05:19:18;;;;;;;0.95;0.50;;;17.80;99.90;;;;;;5065473;28;20128;-78
2023/08/19 05:21:45;;;;;;;0.70;0.40;;;17.80;99.90;;;;;;5048404;28;20695;-78
2023/08/19 05:24:11;;;;;;;1.60;0.50;;;17.80;99.90;;;;;;5065070;28;20049;-78
2023/08/19 05:26:39;;;;;;;2.60;0.68;;;17.80;99.90;;;;;;5060533;28;20052;-78
2023/08/19 05:29:06;;;;;;;1.25;0.65;;;17.80;99.90;;;;;;5060647;28;20135;-77
2023/08/19 05:31:32;;;;;;;1.83;0.90;;;17.80;99.90;;;;;;5044547;28;20174;-78
2023/08/19 05:33:59;;;;;;;0.68;0.50;;;17.80;99.90;;;;;;5061073;28;20058;-78
2023/08/19 05:36:27;;;;;;;0.93;0.40;;;17.80;99.90;;;;;;5044966;28;20071;-78
2023/08/19 05:38:54;;;;;;;1.25;0.63;;;17.80;99.90;;;;;;5060880;28;20060;-78
2023/08/19 05:41:20;;;;;;;1.48;0.65;;;17.80;99.90;;;;;;5075840;28;20044;-78
2023/08/19 05:43:47;;;;;;;2.80;0.80;;;17.80;99.90;;;;;;5061756;28;20052;-78
2023/08/19 05:46:14;;;;;;;0.93;0.60;;;17.80;99.90;;;;;;5029340;28;20515;-78
2023/08/19 05:48:41;;;;;;;1.08;0.50;;;17.80;99.90;;;;;;5031673;28;20044;-81
2023/08/19 05:51:08;;;;;;;1.05;0.50;;;17.90;99.90;;;;;;5064709;28;20391;-81
2023/08/19 05:53:35;;;;;;;1.27;0.55;;;17.90;99.90;;;;;;5031514;28;20044;-78
2023/08/19 05:56:02;;;;;;;1.95;0.73;;;17.90;99.90;;;;;;5058284;28;20053;-78
2023/08/19 05:58:29;;;;;;;1.17;0.70;;;17.90;99.90;;;;;;5043755;28;20803;-78
2023/08/19 06:01:00;;;;;;;1.15;0.50;;;17.90;99.90;;;;;;5054925;28;20048;-78
2023/08/19 06:03:27;;;;;;;2.28;0.73;;;17.90;99.90;;;;;;5043563;28;20040;-78
2023/08/19 06:05:54;;;;;;;0.95;0.60;;;17.90;99.90;;;;;;5072511;28;20167;-78
2023/08/19 06:08:21;;;;;;;2.22;0.80;;;17.90;99.90;;;;;;5040949;28;20044;-78
2023/08/19 06:11:06;;;;;;;0.55;0.50;;;18.00;99.90;;;;;;5056617;28;20047;-78
2023/08/19 06:13:34;;;;;;;1.15;0.57;;;18.00;99.90;;;;;;5031766;28;20079;-81
2023/08/19 06:16:01;;;;;;;1.67;1.10;;;18.10;99.90;;;;;;5028200;28;20072;-81
2023/08/19 06:18:28;;;;;;;1.60;0.60;;;18.20;99.90;;;;;;5026491;28;20132;-82
2023/08/19 06:20:55;;;;;;;1.38;0.60;;;18.20;99.90;;;;;;5080962;28;20052;-78
2023/08/19 06:23:22;;;;;;;1.23;0.60;;;18.30;55.70;;;;;;5080437;28;20044;-78
2023/08/19 06:25:51;;;;;;;1.02;0.65;;;18.40;12.50;;;;;;5060084;28;20048;-78
2023/08/19 06:28:18;;;;;;;1.02;0.47;;;18.50;2.60;;;;;;5044268;28;20076;-78
2023/08/19 06:30:45;;;;;;;1.42;0.60;;;18.60;1.00;;;;;;5077283;28;20048;-78
2023/08/19 06:33:13;;;;;;;1.92;0.65;;;18.70;1.00;;;;;;5046752;28;20060;-78
2023/08/19 06:35:40;;;;;;;1.67;0.60;;;18.80;1.00;;;;;;5045002;28;20056;-79
2023/08/19 06:38:15;;;;;;;2.10;0.80;;;18.90;1.00;;;;;;5057716;28;20060;-79
2023/08/19 06:40:55;;;;;;;1.83;0.80;;;18.90;1.00;;;;;;5051341;28;20067;-80
2023/08/19 06:43:28;;;;;;;1.50;0.70;;;19.00;1.00;;;;;;5076168;28;20056;-80
2023/08/19 06:45:55;;;;;;;1.65;0.70;;;19.00;1.00;;;;;;5048258;28;20424;-80
2023/08/19 06:48:23;;;;;;;1.38;0.40;;;19.10;1.00;;;;;;5061202;28;20052;-80
2023/08/19 06:50:51;;;;;;;0.63;0.55;;;19.20;99.90;;;;;;5072417;28;20063;-80
2023/08/19 06:53:18;;;;;;;1.05;0.50;;;19.30;99.90;;;;;;5062117;28;20052;-80
2023/08/19 06:56:11;;;;;;;1.48;0.77;;;19.30;99.90;;;;;;5034512;28;20048;-79
2023/08/19 06:58:41;;;;;;;2.75;0.82;;;19.40;99.90;;;;;;5084022;28;20056;-80
2023/08/19 07:01:17;;;;;;;1.30;0.80;;;19.40;86.60;;;;;;5079919;28;20105;-79
2023/08/19 07:03:45;;;;;;;2.40;0.60;;;19.40;64.60;;;;;;5071769;28;20057;-80
2023/08/19 07:06:13;;;;;;;1.85;0.82;;;19.40;99.90;;;;;;5060885;28;20106;-81
2023/08/19 07:08:39;;;;;;;1.30;0.45;;;19.40;29.20;;;;;;5060600;28;20063;-80
2023/08/19 07:11:08;;;;;;;1.48;0.63;;;19.50;7.70;;;;;;5064591;28;20510;-80
2023/08/19 07:13:36;;;;;;;1.77;0.60;;;19.50;1.00;;;;;;5066372;28;20098;-80
2023/08/19 07:16:03;;;;;;;1.60;0.50;;;19.60;1.00;;;;;;5083085;28;20500;-80
2023/08/19 07:18:34;;;;;;;1.65;0.70;;;19.60;1.00;;;;;;5065210;28;20611;-80
2023/08/19 07:21:01;;;;;;;0.95;0.50;;;19.70;1.00;;;;;;5067150;28;20056;-80
2023/08/19 07:23:28;;;;;;;2.05;0.60;;;19.70;1.00;;;;;;5092739;28;20052;-79
2023/08/19 07:25:54;;;;;;;1.60;0.52;;;19.80;99.90;;;;;;5095214;28;20195;-79
2023/08/19 07:28:23;;;;;;;1.45;0.50;;;19.80;99.90;;;;;;5061327;28;20056;-80
2023/08/19 07:30:50;;;;;;;1.92;0.60;;;19.80;99.90;;;;;;5078533;28;20463;-80
2023/08/19 07:33:17;;;;;;;1.38;0.75;;;19.90;99.90;;;;;;5081364;28;20052;-80
2023/08/19 07:35:44;;;;;;;1.90;0.85;;;19.90;1.00;;;;;;5050164;28;20045;-81
2023/08/19 07:38:11;;;;;;;1.88;0.98;;;19.90;99.90;;;;;;5081145;28;20462;-80
2023/08/19 07:40:37;;;;;;;2.88;1.02;;;19.90;99.90;;;;;;5096272;28;20109;-80
2023/08/19 07:43:04;;;;;;;2.33;0.80;;;19.90;1.00;;;;;;5061056;28;20594;-80
2023/08/19 07:45:31;;;;;;;1.98;0.68;;;20.00;3.30;;;;;;5050903;28;20051;-81
2023/08/19 07:47:58;;;;;;;1.83;0.50;;;20.10;99.90;;;;;;5070121;28;22186;-80
2023/08/19 07:50:25;;;;;;;2.80;0.63;;;20.20;99.90;;;;;;5081589;28;20133;-80
2023/08/19 07:52:52;;;;;;;3.05;0.60;;;20.10;1.00;;;;;;5056393;28;20052;-80
2023/08/19 07:55:19;;;;;;;1.33;0.68;;;20.10;99.80;;;;;;5075480;28;20434;-82
2023/08/19 07:57:46;;;;;;;1.35;0.80;;;20.10;1.00;;;;;;5056959;28;20048;-78
2023/08/19 08:00:13;;;;;;;1.83;1.17;;;20.30;99.90;;;;;;5048610;28;20071;-80
2023/08/19 08:02:39;;;;;;;1.83;0.80;;;20.30;99.90;;;;;;5067546;28;20048;-80
2023/08/19 08:05:07;;;;;;;1.50;0.90;;;20.40;99.90;;;;;;5064200;28;20049;-80
2023/08/19 08:07:34;;;;;;;2.47;0.90;;;20.50;99.90;;;;;;5061760;28;20048;-80
2023/08/19 08:10:03;;;;;;;2.70;1.48;;;20.60;1.00;;;;;;5065633;28;20425;-80
2023/08/19 08:12:31;;;;;;;1.85;0.88;;;20.60;99.90;;;;;;5062871;28;20139;-80
2023/08/19 08:14:58;;;;;;;1.60;0.70;;;20.70;99.90;;;;;;5066775;28;20128;-80
2023/08/19 08:17:25;;;;;;;2.75;1.00;;;20.80;99.90;;;;;;5042213;28;20857;-80
2023/08/19 08:19:53;;;;;;;1.23;0.77;;;20.80;25.90;;;;;;5045873;28;20052;-79
2023/08/19 08:22:20;;;;;;;1.73;0.77;;;20.80;36.80;;;;;;5033706;28;20044;-80
2023/08/19 08:24:47;;;;;;;1.75;0.88;;;20.90;99.90;;;;;;5050313;28;20290;-79
2023/08/19 08:27:14;;;;;;;1.50;0.88;;;21.00;1.00;;;;;;5098435;28;20139;-80
2023/08/19 08:29:41;;;;;;;2.22;0.93;;;21.10;99.90;;;;;;5067583;28;20044;-79
2023/08/19 08:32:09;;;;;;;0.73;0.40;;;21.20;99.90;;;;;;5038795;28;20056;-80
2023/08/19 08:34:36;;;;;;;1.67;0.63;;;21.30;99.90;;;;;;5066987;28;20044;-80
2023/08/19 08:37:03;;;;;;;1.90;0.80;;;21.40;1.00;;;;;;5083243;28;20518;-80
2023/08/19 08:39:30;;;;;;;1.08;0.63;;;21.40;99.90;;;;;;5080951;28;20670;-80
2023/08/19 08:41:57;;;;;;;2.45;0.80;;;21.50;99.90;;;;;;5064711;28;20454;-80
2023/08/19 08:44:25;;;;;;;2.10;0.68;;;21.50;99.90;;;;;;5091638;28;20117;-80
2023/08/19 08:46:53;;;;;;;1.23;0.50;;;21.60;99.90;;;;;;5075525;28;20060;-80
2023/08/19 08:49:19;;;;;;;1.25;0.75;;;21.60;1.00;;;;;;5064328;28;21725;-80
2023/08/19 08:51:46;;;;;;;1.23;0.60;;;21.60;99.90;;;;;;5081143;28;20499;-79
2023/08/19 08:54:13;;;;;;;1.65;0.70;;;21.70;99.90;;;;;;5062638;28;20056;-79
2023/08/19 08:56:40;;;;;;;2.22;1.00;;;21.70;18.90;;;;;;5044799;28;20121;-80
2023/08/19 08:59:07;;;;;;;1.92;0.70;;;21.50;99.30;;;;;;5047011;28;20665;-80
2023/08/19 09:01:34;;;;;;;1.70;0.80;;;21.50;99.90;;;;;;5062460;28;20527;-80
2023/08/19 09:04:03;;;;;;;2.55;0.80;;;21.50;20.90;;;;;;5046815;28;20048;-79
2023/08/19 09:06:30;;;;;;;2.22;0.90;;;21.40;1.00;;;;;;5063086;28;20045;-79
2023/08/19 09:09:02;;;;;;;1.10;0.60;;;21.40;99.90;;;;;;5061861;28;20761;-79
2023/08/19 09:11:30;;;;;;;1.75;1.05;;;21.40;62.80;;;;;;5062945;28;20048;-79
2023/08/19 09:14:05;;;;;;;1.17;0.57;;;21.30;92.10;;;;;;5065018;28;20057;-79
2023/08/19 09:16:32;;;;;;;1.17;0.60;;;21.20;99.90;;;;;;5064502;28;20048;-78
2023/08/19 09:18:59;;;;;;;1.15;0.50;;;21.10;1.00;;;;;;5067363;28;20067;-78
2023/08/19 09:21:26;;;;;;;2.13;0.73;;;21.20;1.00;;;;;;5061662;28;20091;-78
2023/08/19 09:23:53;;;;;;;1.38;0.70;;;21.30;99.90;;;;;;5027939;28;20492;-80
2023/08/19 09:26:20;;;;;;;1.13;0.55;;;21.30;99.90;;;;;;5073863;28;20592;-80
2023/08/19 09:28:47;;;;;;;1.92;0.80;;;21.30;99.90;;;;;;5071370;28;20128;-79
2023/08/19 09:31:20;;;;;;;1.77;0.73;;;21.50;99.90;;;;;;5066666;28;20143;-80
2023/08/19 09:33:53;;;;;;;1.25;0.75;;;21.50;99.90;;;;;;5098350;28;20094;-79
2023/08/19 09:36:23;;;;;;;1.27;0.63;;;21.60;99.90;;;;;;5064920;28;20052;-80
2023/08/19 09:38:54;;;;;;;1.60;0.57;;;21.70;99.90;;;;;;5065637;28;20566;-80
2023/08/19 09:41:25;;;;;;;1.25;0.50;;;21.70;99.90;;;;;;5047389;28;20056;-79
2023/08/19 09:43:52;;;;;;;0.70;0.43;;;21.80;99.90;;;;;;5082272;28;20113;-79
2023/08/19 09:46:19;;;;;;;1.65;0.52;;;22.00;99.90;;;;;;5066381;28;20048;-79
2023/08/19 09:48:53;;;;;;;1.38;0.68;;;22.30;99.90;;;;;;5064027;28;20048;-79
2023/08/19 09:51:27;;;;;;;1.35;0.70;;;22.40;99.90;;;;;;5063548;28;20118;-79
2023/08/19 09:53:57;;;;;;;1.58;0.50;;;22.70;94.20;;;;;;5062874;28;20060;-79
2023/08/19 09:56:25;;;;;;;2.90;0.70;;;22.80;90.70;;;;;;5062999;28;20133;-79
2023/08/19 09:58:57;;;;;;;0.85;0.30;;;22.90;82.50;;;;;;5064371;28;20159;-79
2023/08/19 10:01:25;;;;;;;0.95;0.55;;;23.00;95.70;;;;;;5063193;28;20475;-79
2023/08/19 10:03:52;;;;;;;1.15;0.50;;;23.30;89.60;;;;;;5062063;28;20056;-87
2023/08/19 10:06:23;;;;;;;1.48;0.52;;;23.40;68.30;;;;;;5061665;28;20040;-89
2023/08/19 10:08:51;;;;;;;1.08;0.57;;;23.40;68.00;;;;;;5044936;28;20094;-86
2023/08/19 10:11:19;;;;;;;1.63;0.75;;;23.40;64.10;;;;;;5049597;28;20770;-88
2023/08/19 10:13:46;;;;;;;1.75;0.77;;;23.40;69.60;;;;;;5084207;28;20445;-87
2023/08/19 10:16:13;;;;;;;1.10;0.50;;;23.40;62.80;;;;;;5068103;28;20079;-89
2023/08/19 10:18:41;;;;;;;1.30;0.68;;;23.20;54.40;;;;;;5067628;28;20068;-87
2023/08/19 10:21:08;;;;;;;0.30;0.20;;;23.00;52.10;;;;;;5055172;28;20110;-86
2023/08/19 10:23:35;;;;;;;0.60;0.30;;;22.80;51.40;;;;;;5067831;28;20045;-87
2023/08/19 10:26:02;;;;;;;1.23;0.55;;;22.70;49.40;;;;;;5041833;28;20152;-77
2023/08/19 10:28:29;;;;;;;1.77;0.70;;;22.50;42.10;;;;;;5046295;28;20040;-77
2023/08/19 10:31:08;;;;;;;1.85;0.60;;;22.50;45.60;;;;;;5064119;28;20609;-77
2023/08/19 10:33:44;;;;;;;1.08;0.50;;;22.50;49.80;;;;;;5057351;28;20040;-76
2023/08/19 10:36:14;;;;;;;3.17;1.25;;;22.50;39.90;;;;;;5056489;28;20064;-77
2023/08/19 10:38:45;;;;;;;1.33;0.70;;;22.50;40.10;;;;;;5063390;28;20071;-76
2023/08/19 10:41:17;;;;;;;1.20;0.40;;;22.50;41.40;;;;;;5096086;28;20048;-76
2023/08/19 10:44:00;;;;;;;1.20;0.60;;;22.70;47.30;;;;;;5063751;28;20048;-76
2023/08/19 10:46:32;;;;;;;1.40;0.50;;;22.90;47.60;;;;;;5058978;28;20055;-77
2023/08/19 10:49:00;;;;;;;1.75;0.73;;;23.20;46.00;;;;;;5031721;28;20087;-77
2023/08/19 10:51:51;;;;;;;1.95;0.70;;;23.20;33.80;;;;;;5073680;28;20176;-77
2023/08/19 10:54:26;;;;;;;1.23;0.52;;;23.40;35.90;;;;;;5063572;28;20063;-77
2023/08/19 10:57:05;;;;;;;1.13;0.70;;;23.40;29.00;;;;;;5063445;28;20094;-77
2023/08/19 10:59:33;;;;;;;1.48;0.52;;;23.20;24.00;;;;;;5064523;28;20045;-76
2023/08/19 11:02:00;;;;;;;1.45;0.70;;;23.10;23.70;;;;;;5026917;28;20056;-76
2023/08/19 11:04:28;;;;;;;2.75;0.90;;;23.00;24.00;;;;;;5047152;28;20052;-76
2023/08/19 11:06:56;;;;;;;1.88;0.57;;;23.10;26.10;;;;;;5064717;28;20045;-76
2023/08/19 11:09:24;;;;;;;2.38;0.70;;;23.10;23.90;;;;;;5071879;28;20040;-76
2023/08/19 11:11:51;;;;;;;1.95;0.55;;;23.40;26.40;;;;;;5062379;28;20492;-76
2023/08/19 11:14:18;;;;;;;1.23;0.60;;;23.50;26.10;;;;;;5063818;28;20053;-77
2023/08/19 11:16:52;;;;;;;1.13;0.60;;;23.60;26.80;;;;;;5027935;28;20052;-76
2023/08/19 11:19:18;;;;;;;2.92;0.90;;;23.40;25.30;;;;;;5037941;28;20067;-76
2023/08/19 11:21:46;;;;;;;2.35;0.75;;;23.50;26.80;;;;;;5055382;28;20049;-76
2023/08/19 11:24:13;;;;;;;1.27;0.50;;;23.70;27.30;;;;;;5045719;28;20045;-76
2023/08/19 11:26:40;;;;;;;2.38;0.70;;;24.00;25.60;;;;;;5053007;28;20049;-77
2023/08/19 11:29:07;;;;;;;1.70;0.68;;;24.40;25.60;;;;;;5056593;28;20053;-76
2023/08/19 11:31:37;;;;;;;2.00;0.90;;;24.60;25.30;;;;;;5040235;28;20044;-77
2023/08/19 11:34:08;;;;;;;1.08;0.55;;;25.00;26.80;;;;;;5052815;28;20049;-76
2023/08/19 11:36:38;;;;;;;1.00;0.50;;;25.10;22.60;;;;;;5061028;28;20041;-85
2023/08/19 11:39:05;;;;;;;1.30;0.60;;;25.10;19.00;;;;;;5062737;28;20087;-80
2023/08/19 11:41:36;;;;;;;2.25;0.82;;;24.90;15.80;;;;;;5063646;28;20504;-80
2023/08/19 11:44:04;;;;;;;2.60;0.88;;;24.80;15.60;;;;;;5061491;28;20052;-79
2023/08/19 11:46:31;;;;;;;1.40;0.68;;;24.70;14.30;;;;;;5040711;28;20043;-81
2023/08/19 11:49:10;;;;;;;1.65;0.73;;;24.90;12.00;;;;;;5063948;28;20132;-84
2023/08/19 11:51:38;;;;;;;1.75;0.90;;;25.30;11.40;;;;;;5080893;28;20045;-84
2023/08/19 11:54:09;;;;;;;2.00;0.93;;;25.50;8.70;;;;;;5059040;28;20064;-84
2023/08/19 11:56:59;;;;;;;2.90;1.05;;;25.20;2.50;;;;;;5026870;28;20134;-84
2023/08/19 11:59:34;;;;;;;2.35;1.05;;;25.10;1.00;;;;;;5075418;28;20564;-84
2023/08/19 12:02:10;;;;;;;2.03;0.75;;;25.20;1.00;;;;;;5061863;28;20053;-84
2023/08/19 12:04:37;;;;;;;2.42;0.77;;;25.60;5.10;;;;;;5064711;28;20653;-85
2023/08/19 12:07:06;;;;;;;2.38;0.90;;;25.80;4.10;;;;;;5063419;28;20048;-85
2023/08/19 12:09:33;;;;;;;3.15;1.10;;;26.10;1.00;;;;;;5046551;28;20131;-86
2023/08/19 12:12:07;;;;;;;1.92;0.73;;;26.10;1.00;;;;;;5035527;28;20052;-85
2023/08/19 12:14:34;;;;;;;2.05;0.90;;;25.90;1.00;;;;;;5038535;28;20655;-85
2023/08/19 12:17:01;;;;;;;1.92;0.82;;;26.30;1.00;;;;;;5060830;28;20048;-86
2023/08/19 12:19:27;;;;;;;1.20;0.63;;;26.30;5.60;;;;;;5035073;28;20139;-85
2023/08/19 12:21:54;;;;;;;1.50;0.88;;;26.40;1.00;;;;;;5063639;28;20052;-85
2023/08/19 12:24:21;;;;;;;2.00;0.80;;;26.60;1.00;;;;;;5061900;28;20142;-87
2023/08/19 12:26:48;;;;;;;1.05;0.52;;;27.00;1.00;;;;;;5050612;28;20127;-86
2023/08/19 12:29:15;;;;;;;2.53;0.82;;;26.80;1.00;;;;;;5068460;28;20481;-85
2023/08/19 12:31:42;;;;;;;2.45;0.90;;;27.30;1.00;;;;;;5060099;28;21768;-82
2023/08/19 12:34:09;;;;;;;1.00;0.63;;;27.30;1.00;;;;;;5056595;28;20182;-86
2023/08/19 12:36:35;;;;;;;2.15;0.70;;;27.60;1.00;;;;;;5071508;28;20566;-87
2023/08/19 12:39:04;;;;;;;1.50;0.68;;;27.90;1.00;;;;;;5038704;28;20491;-85
2023/08/19 12:41:30;;;;;;;2.00;0.80;;;27.50;1.00;;;;;;5061028;28;20484;-85
2023/08/19 12:43:57;;;;;;;1.60;0.52;;;27.80;1.00;;;;;;5055374;28;20572;-85
2023/08/19 12:46:30;;;;;;;1.80;0.82;;;27.80;1.00;;;;;;5059883;28;20059;-85
2023/08/19 12:48:57;;;;;;;1.48;0.82;;;27.40;1.00;;;;;;5058527;28;20060;-84
2023/08/19 12:51:24;;;;;;;1.65;0.75;;;27.70;1.00;;;;;;5071383;28;20048;-84
2023/08/19 12:53:50;;;;;;;1.33;0.73;;;28.20;1.00;;;;;;5063312;28;20071;-85
2023/08/19 12:56:17;;;;;;;1.55;0.77;;;28.70;1.00;;;;;;5061151;28;20052;-84